Easton, ME (04740)

2:44 PM EST on December 25, 2014 (GMT -0500)
APRSWXNET Presque Isle ME US | Change Station
CLOSE
Current Station
Personal Weather Station
Location: Presque Isle, ME
Elevation: 649 ft
Nearby Weather Stations
Active Advisory: Wind Advisory Active Notice: Public Information Statement

Elev 649 ft 46.69 °N, 67.99 °W | Updated 38 minutes ago

Overcast
Overcast
41 °F
Feels Like 38 °F
N
4
Wind Variable Wind from WSW
Gusts 16.0 mph

Today
High -- | Low -- °F
--% Chance of Precip.
Yesterday
High -- | Low -- °F
Precip. -- in
7:14 AM 3:48 PM
Waxing Crescent, 18% visible
Pressure 29.27 in
Visibility 10.0 miles
Clouds Overcast 3800 ft
Windchill 38 °F
Dew Point 36 °F
Humidity 82%
Rainfall 0.92 in
Snow Depth Not available.
UV 0 out of 12
Pollen .10 out of 12
Air Quality Not available.
Flu Activity Not available.
METAR KPQI 251935Z AUTO 24011G18KT 10SM OVC038 06/01 A2927 RMK AO1

More Conditions Fewer Conditions

Pressure 29.27 in
Visibility 10.0 miles
Clouds Overcast 3800 ft
Windchill 38 °F
Dew Point 36 °F
Humidity 82%
Rainfall 0.92 in
Snow Depth Not available.
UV 0 out of 12
Pollen .10 out of 12
Air Quality Not available.
Flu Activity Not available.
METAR KPQI 251935Z AUTO 24011G18KT 10SM OVC038 06/01 A2927 RMK AO1

More Conditions Fewer Conditions

10-Day Weather Forecast

Almanac

Astronomy

Dec. 25, 2014 Rise Set
Actual Time
Civil Twilight
Nautical Twilight
Astronomical Twilight
Moon
Length of Visible Light
Length of Day
Tomorrow will be .
, % of the Moon is Illuminated

Today's Extremes

State Highs State Lows

Community

WunderPhotos

Upload Photos

1,780,376 photos uploaded!

WunderBlogs® & News

Nearby

Air Quality

  Air Quality AQ Index Pollutant
Not available.

Snow Depth

Station Depth Elevation

Earthquake Activity

City Distance Mag. Time & Date
Minimum magnitude displayed is 2.5.

Coastal Water Temperatures

Place Temperature

Nearby Weather Stations